Data for 06/20/2018

Time Sea-Level Adjusted Pressure Absolute Pressure Temperature Relative Humidity Dew Point   
(mb) (inHg) (mb) (inHg) (C) (F) (%) (C) (F)
00:05 1025 30.27 854 25.22 11.1 51.9 88 9.1 48.4
00:10 1025 30.27 854 25.22 11 51.9 87 9 48.3
00:15 1025 30.27 854 25.22 11 51.8 88 9 48.3
00:20 1025 30.27 854 25.22 10.9 51.6 88 9 48.2
00:25 1025 30.27 854 25.22 10.8 51.4 88 8.9 48
00:30 1025 30.27 854 25.22 10.7 51.3 87 8.7 47.6
00:35 1025 30.27 854 25.22 10.7 51.2 87 8.5 47.4
00:40 1025 30.27 854 25.22 10.7 51.3 86 8.4 47.1
00:45 1025 30.27 854 25.22 10.7 51.2 85 8.3 46.9
00:50 1025 30.27 854 25.22 10.7 51.2 84 8.2 46.7
00:55 1025 30.27 854 25.22 10.6 51.1 84 8.1 46.6
01:00 1025 30.27 854 25.22 10.6 51.1 84 8.1 46.6
01:05 1024 30.24 854 25.22 10.6 51.2 84 8.1 46.7
01:10 1024 30.24 854 25.22 10.6 51.2 84 8.1 46.5
01:15 1025 30.27 854 25.22 10.7 51.2 84 8.1 46.5
01:20 1024 30.24 854 25.22 10.7 51.3 83 7.9 46.3
01:25 1024 30.24 854 25.22 10.8 51.4 83 8 46.4
01:30 1024 30.24 853 25.19 10.9 51.5 83 8 46.5
01:35 1024 30.24 853 25.19 10.9 51.6 83 8.1 46.6
01:40 1024 30.24 853 25.19 10.9 51.7 84 8.3 46.9
01:45 1024 30.24 853 25.19 10.9 51.5 84 8.3 47
01:50 1024 30.24 853 25.19 10.7 51.3 85 8.3 46.9
01:55 1024 30.24 853 25.19 10.7 51.2 85 8.3 46.9
02:00 1024 30.24 854 25.22 10.6 51.1 85 8.3 46.9
02:05 1024 30.24 853 25.19 10.6 51.1 85 8.3 46.9
02:10 1024 30.24 853 25.19 10.6 51 86 8.3 47
02:15 1024 30.24 853 25.19 10.5 50.8 87 8.3 47
02:20 1024 30.24 853 25.19 10.3 50.6 87 8.3 46.9
02:25 1024 30.24 853 25.19 10.2 50.3 88 8.2 46.8
02:30 1024 30.24 853 25.19 10 49.9 88 8.2 46.7
02:35 1024 30.24 853 25.19 9.9 49.8 88 8.1 46.5
02:40 1024 30.24 853 25.19 9.9 49.7 88 8 46.4
02:45 1024 30.24 854 25.22 9.8 49.6 88 7.9 46.2
02:50 1024 30.24 854 25.22 9.7 49.5 88 7.9 46.1
02:55 1024 30.24 853 25.19 9.7 49.4 88 7.8 46
03:00 1024 30.24 854 25.22 9.5 49.2 88 7.6 45.7
03:05 1024 30.24 854 25.22 9.5 49 87 7.4 45.3
03:10 1024 30.24 854 25.22 9.5 49.1 86 7.3 45.1
03:15 1024 30.24 854 25.22 9.5 49.2 86 7.3 45.2
03:20 1024 30.24 854 25.22 9.5 49.1 86 7.3 45.2
03:25 1024 30.24 854 25.22 9.3 48.7 87 7.3 45.1
03:30 1024 30.24 854 25.22 9.1 48.4 88 7.3 45.1
03:35 1024 30.24 854 25.22 9 48.3 88 7.2 45
03:40 1024 30.24 854 25.22 9 48.1 88 7.2 44.9
03:45 1024 30.24 854 25.22 9 48.1 89 7.2 44.9
03:50 1024 30.24 854 25.22 9 48.3 88 7.2 44.9
03:55 1024 30.24 854 25.22 9.1 48.4 88 7.2 44.9
04:00 1024 30.24 854 25.22 9.2 48.5 87 7.2 45
04:05 1024 30.24 854 25.22 9.2 48.6 86 7.1 44.8
04:10 1024 30.24 854 25.22 9.3 48.7 86 7 44.6
04:15 1024 30.24 854 25.22 9.3 48.8 85 7 44.7
04:20 1024 30.24 854 25.22 9.4 48.8 85 7 44.6
04:25 1024 30.24 854 25.22 9.5 49.1 85 7.1 44.9
04:30 1024 30.24 854 25.22 9.6 49.3 85 7.2 44.9
04:35 1024 30.24 854 25.22 9.7 49.4 84 7.2 44.9
04:40 1024 30.24 854 25.22 9.7 49.4 84 7.1 44.8
04:45 1024 30.24 854 25.22 9.7 49.4 82 6.8 44.3
04:50 1024 30.24 854 25.22 9.8 49.6 82 6.9 44.4
04:55 1024 30.24 854 25.22 9.8 49.6 83 7 44.7
05:00 1024 30.24 854 25.22 9.7 49.5 82 6.9 44.4
05:05 1024 30.24 854 25.22 9.7 49.4 82 6.8 44.3
05:10 1024 30.24 854 25.22 9.6 49.2 83 6.9 44.5
05:15 1024 30.24 854 25.22 9.4 48.9 85 7 44.5
05:20 1024 30.24 854 25.22 9.4 48.9 86 7.1 44.7
05:25 1024 30.24 854 25.22 9.4 48.8 86 7.1 44.8
05:30 1024 30.24 854 25.22 9.4 49 85 7.1 44.8
05:35 1024 30.24 854 25.22 9.5 49.1 84 7 44.6
05:40 1024 30.24 854 25.22 9.5 49.1 84 7 44.5
05:45 1024 30.24 854 25.22 9.5 49 84 7 44.5
05:50 1024 30.24 854 25.22 9.4 48.9 84 6.8 44.3
05:55 1025 30.27 854 25.22 9.4 48.9 84 6.9 44.4
06:00 1025 30.27 854 25.22 9.4 48.9 84 6.9 44.5
06:05 1025 30.27 854 25.22 9.4 49 85 7.1 44.7
06:10 1025 30.27 854 25.22 9.4 48.9 85 7.1 44.8
06:15 1025 30.27 854 25.22 9.5 49 85 7.1 44.8
06:20 1025 30.27 854 25.22 9.5 49.2 82 6.7 44.1
06:25 1025 30.27 854 25.22 9.8 49.6 81 6.6 43.9
06:30 1025 30.27 854 25.22 9.8 49.7 80 6.5 43.7
06:35 1025 30.27 854 25.22 9.8 49.7 82 7 44.6
06:40 1025 30.27 854 25.22 9.9 49.8 84 7.3 45.1
06:45 1025 30.27 854 25.22 9.8 49.7 84 7.3 45.2
06:50 1025 30.27 854 25.22 9.9 49.9 84 7.4 45.3
06:55 1025 30.27 854 25.22 10 50 85 7.5 45.6
07:00 1025 30.27 854 25.22 10 50 85 7.6 45.6
07:05 1025 30.27 854 25.22 10 50 85 7.7 45.8
07:10 1025 30.27 854 25.22 10 49.9 85 7.6 45.7
07:15 1025 30.27 854 25.22 9.9 49.8 86 7.7 45.8
07:20 1025 30.27 854 25.22 9.9 49.9 87 7.8 46.1
07:25 1025 30.27 854 25.22 10 50 86 7.8 46.1
07:30 1025 30.27 854 25.22 10 50.1 86 7.8 46.1
07:35 1025 30.27 854 25.22 10.1 50.2 86 7.9 46.2
07:40 1025 30.27 854 25.22 10.2 50.4 86 8 46.3
07:45 1025 30.27 854 25.22 10.4 50.6 86 8.1 46.6
07:50 1025 30.27 854 25.22 10.5 50.8 85 8.1 46.5
07:55 1025 30.27 854 25.22 10.6 51 84 8 46.4
08:00 1024 30.24 854 25.22 10.7 51.2 84 8.1 46.6
08:05 1024 30.24 854 25.22 10.9 51.5 84 8.2 46.7
08:10 1024 30.24 854 25.22 11 51.7 82 8.1 46.5
08:15 1024 30.24 854 25.22 11.1 52 81 8 46.3
08:20 1024 30.24 854 25.22 11.3 52.4 81 8.2 46.8
08:25 1024 30.24 854 25.22 11.6 52.9 79 8 46.5
08:30 1024 30.24 854 25.22 11.8 53.2 79 8.2 46.7
08:35 1024 30.24 854 25.22 12 53.6 78 8.3 46.9
08:40 1024 30.24 854 25.22 12.4 54.3 76 8.3 46.9
08:45 1024 30.24 854 25.22 12.6 54.7 74 8 46.4
08:50 1024 30.24 854 25.22 12.6 54.7 73 7.9 46.2
08:55 1025 30.27 854 25.22 12.8 55.1 69 7.3 45.1
09:00 1025 30.27 854 25.22 12.9 55.2 70 7.6 45.8
09:05 1024 30.24 854 25.22 13.6 56.4 67 7.6 45.7
09:10 1024 30.24 854 25.22 14.3 57.7 65 7.8 46.1
09:15 1024 30.24 854 25.22 14.3 57.7 64 7.7 45.8
09:20 1024 30.24 854 25.22 14.3 57.7 63 7.4 45.3
09:25 1024 30.24 854 25.22 14.6 58.2 62 7.4 45.3
09:30 1024 30.24 854 25.22 14.2 57.5 64 7.6 45.7
09:35 1024 30.24 854 25.22 14.2 57.6 64 7.6 45.7
09:40 1024 30.24 854 25.22 14.8 58.7 62 7.6 45.7
09:45 1024 30.24 854 25.22 15.2 59.3 59 7.4 45.3
09:50 1024 30.24 854 25.22 14.3 57.7 65 7.9 46.2
09:55 1024 30.24 854 25.22 14.2 57.5 63 7.3 45.1
10:00 1024 30.24 854 25.22 14.2 57.5 63 7.2 45
10:05 1024 30.24 854 25.22 14.7 58.5 60 7.2 45
10:10 1024 30.24 854 25.22 15.6 60 60 8 46.3
10:15 1024 30.24 854 25.22 14.9 58.8 62 7.8 46.1
10:20 1024 30.24 854 25.22 15.3 59.6 60 7.7 45.9
10:25 1024 30.24 854 25.22 16.3 61.4 58 8.1 46.5
10:30 1024 30.24 854 25.22 16.4 61.5 55 7.6 45.6